createdAt,value
2022-11-24T00:02:43.854Z,6.78
2022-11-24T00:08:03.116Z,6.87
2022-11-24T00:13:21.524Z,6.98
2022-11-24T00:18:50.457Z,7.01
2022-11-24T00:23:59.952Z,6.95
2022-11-24T00:29:18.863Z,7.02
2022-11-24T00:34:37.365Z,7.12
2022-11-24T00:39:56.343Z,7.11
2022-11-24T00:45:15.990Z,7.07
2022-11-24T00:50:35.319Z,7.07
2022-11-24T00:55:54.710Z,6.97
2022-11-24T01:01:14.080Z,6.84
2022-11-24T01:06:33.471Z,6.71
2022-11-24T01:11:52.756Z,6.7
2022-11-24T01:17:12.293Z,6.71
2022-11-24T01:22:32.013Z,6.83
2022-11-24T01:27:51.760Z,6.95
2022-11-24T01:33:10.300Z,7.18
2022-11-24T01:38:29.440Z,7.29
2022-11-24T01:43:48.246Z,7.4
2022-11-24T01:49:07.069Z,7.45
2022-11-24T01:54:26.047Z,7.55
2022-11-24T01:59:45.005Z,7.6
2022-11-24T02:05:04.011Z,7.69
2022-11-24T02:10:23.612Z,7.73
2022-11-24T02:15:42.979Z,7.73
2022-11-24T02:21:01.792Z,7.76
2022-11-24T02:26:21.954Z,7.83
2022-11-24T02:31:40.826Z,7.97
2022-11-24T02:36:59.012Z,8.04
2022-11-24T02:42:18.074Z,8.02
2022-11-24T02:47:37.684Z,8.02
2022-11-24T02:52:57.377Z,7.94
2022-11-24T02:58:17.129Z,7.94
2022-11-24T03:03:35.939Z,7.9
2022-11-24T03:08:55.612Z,7.83
2022-11-24T03:15:29.927Z,7.8
2022-11-24T03:19:32.825Z,7.7
2022-11-24T03:24:51.648Z,7.6
2022-11-24T03:30:10.996Z,7.56
2022-11-24T03:35:30.029Z,7.59
2022-11-24T03:40:49.564Z,7.65
2022-11-24T03:46:08.498Z,7.66
2022-11-24T03:51:27.608Z,7.7
2022-11-24T03:56:47.003Z,7.69
2022-11-24T04:02:05.194Z,7.53
2022-11-24T04:07:23.994Z,7.46
2022-11-24T04:12:42.799Z,7.46
2022-11-24T04:18:01.821Z,7.53
2022-11-24T04:23:21.428Z,7.67
2022-11-24T04:28:41.097Z,7.81
2022-11-24T04:34:00.122Z,7.91
2022-11-24T04:39:26.229Z,8.02
2022-11-24T04:44:39.177Z,8.1
2022-11-24T04:49:58.089Z,8.14
2022-11-24T04:55:16.500Z,8.17
2022-11-24T05:00:36.148Z,8.14
2022-11-24T05:05:55.639Z,8.07
2022-11-24T05:11:15.265Z,8.04
2022-11-24T05:16:34.568Z,8.07
2022-11-24T05:21:53.908Z,8.04
2022-11-24T05:27:12.987Z,8.1
2022-11-24T05:32:32.345Z,8.02
2022-11-24T05:37:51.678Z,8.02
2022-11-24T05:43:10.736Z,8.05
2022-11-24T05:48:30.225Z,7.98
2022-11-24T05:53:49.464Z,7.94
2022-11-24T05:59:10.068Z,7.86
2022-11-24T06:04:28.339Z,7.86
2022-11-24T06:09:47.943Z,7.94
2022-11-24T06:15:07.290Z,7.86
2022-11-24T06:20:31.296Z,7.83
2022-11-24T06:25:50.162Z,7.66
2022-11-24T06:31:03.702Z,7.66
2022-11-24T06:36:22.501Z,7.63
2022-11-24T06:41:41.476Z,7.45
2022-11-24T06:47:00.907Z,7.32
2022-11-24T06:52:20.979Z,7.28
2022-11-24T06:57:40.009Z,7.32
2022-11-24T07:02:58.985Z,7.25
2022-11-24T07:08:18.357Z,7.22
2022-11-24T07:14:52.496Z,7.18
2022-11-24T07:19:09.011Z,7.18
2022-11-24T07:24:17.084Z,7.16
2022-11-24T07:29:36.132Z,7.14
2022-11-24T07:34:54.906Z,7.12
2022-11-24T07:43:27.955Z,7.15
2022-11-24T07:47:44.500Z,7.18
2022-11-24T07:50:55.429Z,7.19
2022-11-24T07:56:11.191Z,7.22
2022-11-24T08:01:30.812Z,7.23
2022-11-24T08:06:50.326Z,7.25
2022-11-24T08:13:24.489Z,7.18
2022-11-24T08:22:48.893Z,7.15
2022-11-24T08:31:22.116Z,7.16
2022-11-24T08:33:27.371Z,7.14
2022-11-24T08:38:47.046Z,7.07
2022-11-24T08:44:06.410Z,7.14
2022-11-24T08:49:26.237Z,7.21
2022-11-24T08:54:44.912Z,7.22
2022-11-24T09:00:04.623Z,7.19
2022-11-24T09:05:50.481Z,7.15
2022-11-24T09:13:56.536Z,7.22
2022-11-24T09:18:12.000Z,7.23
2022-11-24T09:21:20.193Z,7.29
2022-11-24T09:27:54.358Z,7.26
2022-11-24T09:32:09.790Z,7.26
2022-11-24T09:37:17.153Z,7.28
2022-11-24T09:43:51.277Z,7.23
2022-11-24T09:47:56.242Z,7.19
2022-11-24T09:53:15.966Z,7.11
2022-11-24T09:58:34.678Z,7.18
2022-11-24T10:03:52.446Z,7.29
2022-11-24T10:09:11.710Z,7.52
2022-11-24T10:14:31.505Z,7.7
2022-11-24T10:19:50.988Z,7.91
2022-11-24T10:25:10.495Z,8.01
2022-11-24T10:30:29.791Z,8.05
2022-11-24T10:35:48.906Z,8.04
2022-11-24T10:41:07.732Z,8.1
2022-11-24T10:46:26.902Z,8.01
2022-11-24T10:51:47.044Z,8.41
2022-11-24T10:57:05.969Z,9.17
2022-11-24T11:02:25.421Z,9.42
2022-11-24T11:07:44.452Z,9.37
2022-11-24T11:13:03.444Z,9.14
2022-11-24T11:18:21.626Z,9.3
2022-11-24T11:23:41.013Z,9.62
2022-11-24T11:34:25.169Z,8.72
2022-11-24T11:39:42.524Z,8.76
2022-11-24T11:44:58.993Z,8.55
2022-11-24T11:50:18.216Z,8.12
2022-11-24T11:55:37.213Z,8.04
2022-11-24T12:00:56.618Z,8.29
2022-11-24T12:06:15.935Z,9.14
2022-11-24T12:11:35.305Z,9.68
2022-11-24T12:16:54.132Z,9.75
2022-11-24T12:22:13.110Z,9.22
2022-11-24T12:27:32.035Z,8.97
2022-11-24T12:32:51.711Z,8.91
2022-11-24T12:38:10.436Z,8.77
2022-11-24T12:43:29.925Z,8.72
2022-11-24T12:48:49.575Z,8.72
2022-11-24T12:54:09.243Z,8.77
2022-11-24T12:59:27.607Z,8.91
2022-11-24T13:04:46.904Z,8.96
2022-11-24T13:10:06.480Z,8.93
2022-11-24T13:15:45.008Z,9.01
2022-11-24T13:20:53.625Z,9.1
2022-11-24T13:26:03.583Z,9.21
2022-11-24T13:31:23.282Z,9.41
2022-11-24T13:36:43.331Z,9.72
2022-11-24T13:42:02.299Z,9.6
2022-11-24T13:42:41.403Z,9.77
2022-11-24T13:47:47.795Z,9.34
2022-11-24T13:53:07.117Z,9.14
2022-11-24T13:58:26.455Z,8.93
2022-11-24T14:04:00.960Z,8.79
2022-11-24T14:09:04.436Z,8.75
2022-11-24T14:14:24.179Z,8.7
2022-11-24T14:19:43.500Z,8.68
2022-11-24T14:26:17.654Z,8.72
2022-11-24T14:30:21.766Z,8.75
2022-11-24T14:41:03.063Z,8.77
2022-11-24T14:46:20.730Z,8.79
2022-11-24T14:51:40.007Z,8.82
2022-11-24T14:56:58.955Z,8.96
2022-11-24T15:02:18.288Z,8.87
2022-11-24T15:07:37.824Z,8.63
2022-11-24T15:12:56.246Z,8.41
2022-11-24T15:18:15.266Z,8.27
2022-11-24T15:23:34.441Z,8.21
2022-11-24T15:28:53.682Z,8.1
2022-11-24T15:34:13.371Z,8.01
2022-11-24T15:39:32.467Z,7.95
2022-11-24T15:44:52.113Z,7.87
2022-11-24T15:50:11.622Z,7.81
2022-11-24T15:55:30.533Z,7.73
2022-11-24T16:00:50.329Z,7.63
2022-11-24T16:06:24.024Z,7.43
2022-11-24T16:11:28.751Z,7.33
2022-11-24T16:16:48.508Z,7.33
2022-11-24T16:22:07.176Z,7.14
2022-11-24T16:27:26.389Z,6.97
2022-11-24T16:32:45.481Z,6.78
2022-11-24T16:38:04.293Z,6.58
2022-11-24T16:43:23.270Z,6.44
2022-11-24T16:48:43.541Z,6.41
2022-11-24T16:54:01.931Z,6.43
2022-11-24T16:59:20.987Z,6.06
2022-11-24T17:04:40.667Z,5.74
2022-11-24T17:09:59.682Z,5.52
2022-11-24T17:15:32.899Z,5.61
2022-11-24T17:20:38.195Z,5.62
2022-11-24T17:25:57.055Z,5.68
2022-11-24T17:31:16.107Z,5.82
2022-11-24T17:36:35.009Z,5.88
2022-11-24T17:41:54.286Z,5.74
2022-11-24T17:47:13.407Z,5.58
2022-11-24T17:52:32.532Z,5.55
2022-11-24T17:57:52.079Z,5.64
2022-11-24T18:03:10.891Z,5.67
2022-11-24T18:08:30.194Z,5.37
2022-11-24T18:13:58.212Z,4.88
2022-11-24T18:19:09.560Z,4.44
2022-11-24T18:24:28.040Z,4.38
2022-11-24T18:29:48.964Z,4.17
2022-11-24T18:35:07.018Z,4.01
2022-11-24T18:40:26.122Z,3.83
2022-11-24T18:45:45.493Z,3.85
2022-11-24T18:51:04.461Z,3.55
2022-11-24T18:56:24.010Z,3.69
2022-11-24T19:01:43.586Z,3.69
2022-11-24T19:07:02.515Z,3.49
2022-11-24T19:13:36.693Z,3.4
2022-11-24T19:17:45.145Z,3.63
2022-11-24T19:23:02.262Z,3.48
2022-11-24T19:28:21.393Z,3.04
2022-11-24T19:33:41.073Z,2.87
2022-11-24T19:39:00.771Z,2.83
2022-11-24T19:44:18.549Z,2.67
2022-11-24T19:49:38.167Z,2.76
2022-11-24T19:54:57.255Z,2.97
2022-11-24T20:00:16.159Z,2.6
2022-11-24T20:05:35.176Z,2.26
2022-11-24T20:10:54.612Z,2.3
2022-11-24T20:16:13.977Z,2.24
2022-11-24T20:21:33.190Z,2.64
2022-11-24T20:26:52.629Z,2.47
2022-11-24T20:32:11.903Z,2.28
2022-11-24T20:37:31.538Z,2.25
2022-11-24T20:42:50.926Z,2.29
2022-11-24T20:48:10.213Z,1.91
2022-11-24T20:53:29.134Z,1.56
2022-11-24T20:58:48.618Z,1.32
2022-11-24T21:04:07.595Z,1.42
2022-11-24T21:09:26.924Z,1.63
2022-11-24T21:14:45.747Z,1.48
2022-11-24T21:20:05.413Z,1.47
2022-11-24T21:25:24.910Z,1.26
2022-11-24T21:30:44.741Z,1.1
2022-11-24T21:36:04.609Z,0.99
2022-11-24T21:41:23.528Z,1.16
2022-11-24T21:46:48.025Z,1.05
2022-11-24T21:52:02.907Z,1.15
2022-11-24T21:57:22.302Z,1.16
2022-11-24T22:02:51.451Z,1.23
2022-11-24T22:08:01.171Z,1.2
2022-11-24T22:13:20.854Z,1.07
2022-11-24T22:18:40.232Z,0.93
2022-11-24T22:23:59.990Z,0.99
2022-11-24T22:29:19.137Z,1.03
2022-11-24T22:34:38.941Z,1.16
2022-11-24T22:39:57.826Z,1.15
2022-11-24T22:45:16.755Z,0.99
2022-11-24T22:50:37.247Z,1.03
2022-11-24T22:55:56.993Z,0.96
2022-11-24T23:01:15.982Z,0.85
2022-11-24T23:06:35.189Z,0.6
2022-11-24T23:11:54.975Z,0.43
2022-11-24T23:17:14.723Z,0.14
2022-11-24T23:22:33.513Z,-0.03
2022-11-24T23:27:52.393Z,-0.08
2022-11-24T23:33:11.508Z,-0.21
2022-11-24T23:38:31.246Z,-0.24
2022-11-24T23:43:58.675Z,-0.15
2022-11-24T23:49:09.846Z,-0.18
2022-11-24T23:54:28.815Z,-0.28
2022-11-24T23:59:48.268Z,-0.28
